Fayetteville Regional Grannis Field
KFAY : now visible

Airfield :











YOU CAN JOIN US ON...

 
LOGIN :

Register | Disclaimer

   EN    FR    IT 

 









Legend :    VFR   Marginal VFR   IFR   Intensive IFR   Very Intensive IFR
Visi :
Ceiling :
>= 8 km
>= 3000ft
5 to 8 km
1000 to 3000 ft
1500m to 5 km
500 to 1000 ft
800 to 1500m
200 to 500 ft
< 800m
< 200 ft
Symbols :   Thunderstorms  Fog  Heavy snow  Heavy precipitations  Wind > 20 kt






- Airport Elevation : 189 ft
- IATA code : FAY


KFAY - Fayetteville Regional Grannis Field

CURRENT METAR :
  • 221353Z 00000KT 10SM CLR 21/18 A3024 RMK AO2 SLP232 T02110183

EXPIRED METARs :
  • 221253Z 03005KT 8SM CLR 19/18 A3022 RMK AO2 SLP228 T01890178
  • 221153Z 02004KT 4SM BR CLR 18/17 A3021 RMK AO2 SLP223 T01780167 10189 20167 51007

TAF KFAY
Valid from the 22 at 12:00 until the 23 at 12:00 UTC


221140Z 2212/2312 00000KT 5SM BR SCT005 BKN250
TEMPO 2212/2214 3/4SM BR BKN003
FM221400 07005KT P6SM SCT030 BKN250
TEMPO 2214/2215 06004KT BKN005
FM231000 00000KT 1/4SM FG VV002
KZDC FIR / North America



MET'MAP, your aeronautical weather chart ! - Copyright ORBIFLY December 2007 - Disclaimer

ORBIFLY MET'MAP TEAM :

Programming & Development : Alexandra Zaïnal
Concept & original design : Baudouin d'Aumeries
Assistance for programming : Marc-Olivier Méhu
Technical & hardware support : Manuel Goepfert

Contact : metmap@orbifly.com




SOURCES & CREDITS :

   NOAA       Earth
Advisory